Time;durP1;ratioP1;P1;durP2;ratioP2;P2;SDS_P1;SDS_P2;PMS_P1;PMS_P2;Temp;Humidity;BMP_temperature;BMP_pressure;BME280_temperature;BME280_humidity;BME280_pressure;Samples;Min_cycle;Max_cycle;Signal;HPM_P1;HPM_P2
2024/03/02 00:00:13;;;;;;;64.72;36.97;;;;;;;;;;5066856;28;20016;-75
2024/03/02 00:02:44;;;;;;;71.82;36.13;;;;;;;;;;5061191;28;20025;-75
2024/03/02 00:05:13;;;;;;;71.97;36.90;;;;;;;;;;5063174;28;20017;-82
2024/03/02 00:07:42;;;;;;;68.43;36.03;;;;;;;;;;5060368;28;20390;-82
2024/03/02 00:10:12;;;;;;;64.57;34.80;;;;;;;;;;5067346;28;20070;-82
2024/03/02 00:12:39;;;;;;;64.53;34.28;;;;;;;;;;5068460;28;20074;-82
2024/03/02 00:15:20;;;;;;;71.20;38.00;;;;;;;;;;5065781;28;20475;-82
2024/03/02 00:17:46;;;;;;;70.20;36.83;;;;;;;;;;5067981;28;20367;-75
2024/03/02 00:20:18;;;;;;;69.90;37.28;;;;;;;;;;5059225;28;20051;-75
2024/03/02 00:22:44;;;;;;;66.25;37.05;;;;;;;;;;5053226;28;20429;-82
2024/03/02 00:25:10;;;;;;;65.43;35.75;;;;;;;;;;5055023;28;20021;-75
2024/03/02 00:27:36;;;;;;;65.95;33.90;;;;;;;;;;5044923;28;20021;-75
2024/03/02 00:30:06;;;;;;;63.70;36.10;;;;;;;;;;5057487;28;20021;-74
2024/03/02 00:32:33;;;;;;;65.72;36.13;;;;;;;;;;5057661;28;20020;-75
2024/03/02 00:34:59;;;;;;;66.53;36.40;;;;;;;;;;5056622;28;20109;-81
2024/03/02 00:37:25;;;;;;;56.47;31.40;;;;;;;;;;5056643;28;20580;-74
2024/03/02 00:39:51;;;;;;;61.78;34.88;;;;;;;;;;5065290;28;20016;-80
2024/03/02 00:42:17;;;;;;;65.20;34.90;;;;;;;;;;5061201;28;20033;-81
2024/03/02 00:44:43;;;;;;;64.45;36.10;;;;;;;;;;5054289;28;20029;-81
2024/03/02 00:47:09;;;;;;;65.90;32.85;;;;;;;;;;5056865;28;20013;-81
2024/03/02 00:49:35;;;;;;;63.35;34.97;;;;;;;;;;5054189;28;20108;-80
2024/03/02 00:52:01;;;;;;;66.15;36.95;;;;;;;;;;5052947;28;20049;-75
2024/03/02 00:54:28;;;;;;;57.40;32.38;;;;;;;;;;5053125;28;20486;-74
2024/03/02 00:56:56;;;;;;;64.38;33.90;;;;;;;;;;5066212;28;20424;-74
2024/03/02 00:59:22;;;;;;;61.53;33.70;;;;;;;;;;5071840;28;20020;-75
2024/03/02 01:01:51;;;;;;;63.38;33.65;;;;;;;;;;5070058;28;20044;-75
2024/03/02 01:04:17;;;;;;;58.72;34.45;;;;;;;;;;5064319;28;20052;-81
2024/03/02 01:06:44;;;;;;;62.53;34.50;;;;;;;;;;5052231;28;20052;-75
2024/03/02 01:09:12;;;;;;;61.80;31.70;;;;;;;;;;5064712;28;20551;-75
2024/03/02 01:11:38;;;;;;;60.35;33.53;;;;;;;;;;5057342;28;20104;-82
2024/03/02 01:14:04;;;;;;;62.92;33.67;;;;;;;;;;5065005;28;20111;-82
2024/03/02 01:16:30;;;;;;;57.92;33.05;;;;;;;;;;5065891;28;20068;-75
2024/03/02 01:18:56;;;;;;;60.63;34.08;;;;;;;;;;5061361;28;20021;-74
2024/03/02 01:21:22;;;;;;;59.70;31.90;;;;;;;;;;5060687;28;20099;-81
2024/03/02 01:23:49;;;;;;;60.92;31.55;;;;;;;;;;5059339;28;20036;-75
2024/03/02 01:26:15;;;;;;;62.75;33.05;;;;;;;;;;5060702;28;21283;-81
2024/03/02 01:28:41;;;;;;;56.40;32.65;;;;;;;;;;5072291;28;20154;-81
2024/03/02 01:31:07;;;;;;;61.83;33.78;;;;;;;;;;5069397;28;20375;-81
2024/03/02 01:33:33;;;;;;;64.55;32.17;;;;;;;;;;5070688;28;20370;-75
2024/03/02 01:36:00;;;;;;;55.90;29.30;;;;;;;;;;5069266;28;20052;-82
2024/03/02 01:38:26;;;;;;;54.20;31.35;;;;;;;;;;5064644;28;20086;-75
2024/03/02 01:40:52;;;;;;;52.15;29.85;;;;;;;;;;5073082;28;20050;-82
2024/03/02 01:43:18;;;;;;;54.92;29.70;;;;;;;;;;5056856;28;20152;-75
2024/03/02 01:45:44;;;;;;;54.38;28.50;;;;;;;;;;5060904;28;20536;-81
2024/03/02 01:48:10;;;;;;;52.03;28.50;;;;;;;;;;5057030;28;20116;-81
2024/03/02 01:50:36;;;;;;;55.47;29.52;;;;;;;;;;5056891;28;20032;-75
2024/03/02 01:53:03;;;;;;;47.70;28.90;;;;;;;;;;5067584;28;20028;-75
2024/03/02 01:55:30;;;;;;;55.78;29.10;;;;;;;;;;5066711;28;20482;-81
2024/03/02 01:57:56;;;;;;;53.10;29.42;;;;;;;;;;5062495;28;20074;-81
2024/03/02 02:00:24;;;;;;;53.78;29.83;;;;;;;;;;5061211;28;20147;-81
2024/03/02 02:02:50;;;;;;;54.35;29.38;;;;;;;;;;5057338;28;20039;-75
2024/03/02 02:05:16;;;;;;;50.97;28.17;;;;;;;;;;5062583;28;20483;-75
2024/03/02 02:07:43;;;;;;;48.22;26.77;;;;;;;;;;5058228;28;20390;-75
2024/03/02 02:10:09;;;;;;;60.55;29.85;;;;;;;;;;5055183;28;20023;-75
2024/03/02 02:12:36;;;;;;;57.95;28.90;;;;;;;;;;5059095;28;20490;-81
2024/03/02 02:15:02;;;;;;;52.28;27.70;;;;;;;;;;5057690;28;20031;-75
2024/03/02 02:17:28;;;;;;;55.72;28.23;;;;;;;;;;5063392;28;20017;-82
2024/03/02 02:19:54;;;;;;;52.45;28.33;;;;;;;;;;5067134;28;20435;-82
2024/03/02 02:22:20;;;;;;;49.53;29.38;;;;;;;;;;5068675;28;20035;-82
2024/03/02 02:24:46;;;;;;;51.05;28.08;;;;;;;;;;5065547;28;20039;-82
2024/03/02 02:27:15;;;;;;;47.55;26.52;;;;;;;;;;5069049;28;20020;-75
2024/03/02 02:29:41;;;;;;;46.45;26.30;;;;;;;;;;5059111;28;20021;-81
2024/03/02 02:32:07;;;;;;;54.15;27.92;;;;;;;;;;5062757;28;20020;-81
2024/03/02 02:34:34;;;;;;;46.78;28.08;;;;;;;;;;5057993;28;20068;-81
2024/03/02 02:37:00;;;;;;;49.88;26.92;;;;;;;;;;5062676;28;20033;-75
2024/03/02 02:39:26;;;;;;;60.00;28.02;;;;;;;;;;5057800;28;20020;-75
2024/03/02 02:41:53;;;;;;;48.90;28.42;;;;;;;;;;5073214;28;20075;-81
2024/03/02 02:44:19;;;;;;;49.95;28.95;;;;;;;;;;5073561;28;20117;-82
2024/03/02 02:46:45;;;;;;;52.05;28.10;;;;;;;;;;5072894;28;20028;-82
2024/03/02 02:49:11;;;;;;;53.25;30.05;;;;;;;;;;5072115;28;20055;-82
2024/03/02 02:51:37;;;;;;;54.63;28.33;;;;;;;;;;5072963;28;20375;-82
2024/03/02 02:54:03;;;;;;;52.95;28.23;;;;;;;;;;5073749;28;20036;-81
2024/03/02 02:56:29;;;;;;;52.70;28.55;;;;;;;;;;5074089;28;20029;-81
2024/03/02 02:58:55;;;;;;;52.20;30.35;;;;;;;;;;5070130;28;20029;-81
2024/03/02 03:01:21;;;;;;;55.20;32.28;;;;;;;;;;5053171;28;20028;-75
2024/03/02 03:03:48;;;;;;;53.33;29.23;;;;;;;;;;5054602;28;20055;-80
2024/03/02 03:06:14;;;;;;;52.00;30.90;;;;;;;;;;5054533;28;20040;-81
2024/03/02 03:08:40;;;;;;;60.55;31.75;;;;;;;;;;5053810;28;20029;-81
2024/03/02 03:11:06;;;;;;;50.22;28.27;;;;;;;;;;5053554;28;20040;-81
2024/03/02 03:13:32;;;;;;;55.70;32.80;;;;;;;;;;5054280;28;20505;-81
2024/03/02 03:15:59;;;;;;;58.72;30.58;;;;;;;;;;5054941;28;20036;-81
2024/03/02 03:18:25;;;;;;;49.67;29.35;;;;;;;;;;5055869;28;20066;-74
2024/03/02 03:20:51;;;;;;;57.33;32.00;;;;;;;;;;5053740;28;20163;-81
2024/03/02 03:23:17;;;;;;;58.15;30.10;;;;;;;;;;5059583;28;20135;-76
2024/03/02 03:25:44;;;;;;;52.83;30.70;;;;;;;;;;5060055;28;20111;-81
2024/03/02 03:28:10;;;;;;;55.08;30.35;;;;;;;;;;5066605;28;20096;-81
2024/03/02 03:30:37;;;;;;;59.42;32.28;;;;;;;;;;5063119;28;20384;-75
2024/03/02 03:33:05;;;;;;;62.88;33.60;;;;;;;;;;5067986;28;20035;-75
2024/03/02 03:35:32;;;;;;;54.10;30.90;;;;;;;;;;5070192;28;20027;-75
2024/03/02 03:37:58;;;;;;;55.25;29.30;;;;;;;;;;5054430;28;20020;-81
2024/03/02 03:40:24;;;;;;;55.92;29.30;;;;;;;;;;5063241;28;20480;-81
2024/03/02 03:42:51;;;;;;;55.60;31.45;;;;;;;;;;5070968;28;20482;-81
2024/03/02 03:45:17;;;;;;;50.92;29.60;;;;;;;;;;5072394;28;20124;-81
2024/03/02 03:47:43;;;;;;;57.70;30.55;;;;;;;;;;5070519;28;20021;-74
2024/03/02 03:50:10;;;;;;;47.33;28.58;;;;;;;;;;5068105;28;20040;-75
2024/03/02 03:52:36;;;;;;;52.95;28.00;;;;;;;;;;5055743;28;20088;-81
2024/03/02 03:55:02;;;;;;;52.30;29.63;;;;;;;;;;5053170;28;20131;-81
2024/03/02 03:57:28;;;;;;;53.05;28.77;;;;;;;;;;5052566;28;20111;-81
2024/03/02 03:59:54;;;;;;;50.65;29.17;;;;;;;;;;5059671;28;20028;-75
2024/03/02 04:02:20;;;;;;;51.20;29.52;;;;;;;;;;5055562;28;20052;-75
2024/03/02 04:04:46;;;;;;;53.60;30.83;;;;;;;;;;5064590;28;20038;-75
2024/03/02 04:07:12;;;;;;;49.33;26.83;;;;;;;;;;5072168;28;20024;-81
2024/03/02 04:09:38;;;;;;;55.65;31.08;;;;;;;;;;5064470;28;20032;-81
2024/03/02 04:12:05;;;;;;;52.15;27.88;;;;;;;;;;5064484;28;20474;-82
2024/03/02 04:14:31;;;;;;;54.05;30.80;;;;;;;;;;5059667;28;20036;-75
2024/03/02 04:16:57;;;;;;;54.28;29.63;;;;;;;;;;5066650;28;20027;-76
2024/03/02 04:19:23;;;;;;;55.97;30.08;;;;;;;;;;5066698;28;20074;-75
2024/03/02 04:21:49;;;;;;;51.63;28.83;;;;;;;;;;5064975;28;20024;-74
2024/03/02 04:24:15;;;;;;;51.08;28.77;;;;;;;;;;5066093;28;20035;-80
2024/03/02 04:26:41;;;;;;;49.70;28.95;;;;;;;;;;5061097;28;20032;-75
2024/03/02 04:29:07;;;;;;;56.03;28.85;;;;;;;;;;5051485;28;20082;-74
2024/03/02 04:31:33;;;;;;;57.53;31.52;;;;;;;;;;5067263;28;20533;-81
2024/03/02 04:33:59;;;;;;;50.13;29.65;;;;;;;;;;5061660;28;20031;-81
2024/03/02 04:36:25;;;;;;;52.00;29.48;;;;;;;;;;5055129;28;20112;-81
2024/03/02 04:38:51;;;;;;;51.10;29.80;;;;;;;;;;5058026;28;20028;-74
2024/03/02 04:41:18;;;;;;;55.15;27.58;;;;;;;;;;5051498;28;20029;-75
2024/03/02 04:43:44;;;;;;;52.03;30.65;;;;;;;;;;5060184;28;20044;-74
2024/03/02 04:46:10;;;;;;;54.47;30.05;;;;;;;;;;5055010;28;20017;-74
2024/03/02 04:48:36;;;;;;;52.25;28.67;;;;;;;;;;5059806;28;20382;-80
2024/03/02 04:51:02;;;;;;;53.55;29.52;;;;;;;;;;5055271;28;20390;-81
2024/03/02 04:53:28;;;;;;;52.85;30.83;;;;;;;;;;5054326;28;20023;-74
2024/03/02 04:58:50;;;;;;;55.13;29.17;;;;;;;;;;5051581;28;20120;-79
2024/03/02 05:01:17;;;;;;;47.78;28.58;;;;;;;;;;5058426;28;20029;-74
2024/03/02 05:03:43;;;;;;;58.58;29.65;;;;;;;;;;5069480;28;20025;-81
2024/03/02 05:06:09;;;;;;;49.20;28.85;;;;;;;;;;5056685;28;20053;-74
2024/03/02 05:08:35;;;;;;;53.30;28.85;;;;;;;;;;5056484;28;20379;-74
2024/03/02 05:11:32;;;;;;;43.45;26.20;;;;;;;;;;5056447;28;20025;-74
2024/03/02 05:13:47;;;;;;;49.35;28.08;;;;;;;;;;5056707;28;20028;-75
2024/03/02 05:16:13;;;;;;;53.40;28.60;;;;;;;;;;5056371;28;20029;-74
2024/03/02 05:18:39;;;;;;;52.65;28.55;;;;;;;;;;5070498;28;20036;-74
2024/03/02 05:21:05;;;;;;;52.40;28.08;;;;;;;;;;5069579;28;20035;-81
2024/03/02 05:23:31;;;;;;;54.50;28.92;;;;;;;;;;5065889;28;20066;-81
2024/03/02 05:25:58;;;;;;;45.92;27.10;;;;;;;;;;5065184;28;20021;-81
2024/03/02 05:28:24;;;;;;;47.15;27.25;;;;;;;;;;5065043;28;20040;-81
2024/03/02 05:30:50;;;;;;;49.90;28.05;;;;;;;;;;5066706;28;20025;-80
2024/03/02 05:33:16;;;;;;;48.70;28.40;;;;;;;;;;5063207;28;20504;-74
2024/03/02 05:35:42;;;;;;;52.47;28.85;;;;;;;;;;5066926;28;20051;-81
2024/03/02 05:38:08;;;;;;;52.70;28.45;;;;;;;;;;5058954;28;20467;-74
2024/03/02 05:40:34;;;;;;;52.22;28.40;;;;;;;;;;5047467;28;20021;-74
2024/03/02 05:43:00;;;;;;;44.92;26.45;;;;;;;;;;5059025;28;20049;-75
2024/03/02 05:45:26;;;;;;;49.35;29.77;;;;;;;;;;5057565;28;20032;-74
2024/03/02 05:47:52;;;;;;;47.92;28.02;;;;;;;;;;5057483;28;20032;-81
2024/03/02 05:50:19;;;;;;;57.90;27.35;;;;;;;;;;5063351;28;20045;-75
2024/03/02 05:52:46;;;;;;;52.50;28.73;;;;;;;;;;5064777;28;20016;-81
2024/03/02 05:55:12;;;;;;;51.78;28.88;;;;;;;;;;5061692;28;20052;-81
2024/03/02 05:57:49;;;;;;;48.47;27.92;;;;;;;;;;5064911;28;20070;-74
2024/03/02 06:00:16;;;;;;;49.42;27.95;;;;;;;;;;5060642;28;20036;-74
2024/03/02 06:02:42;;;;;;;51.80;28.23;;;;;;;;;;5055634;28;20025;-81
2024/03/02 06:05:09;;;;;;;48.67;28.10;;;;;;;;;;5065696;28;20078;-81
2024/03/02 06:07:35;;;;;;;48.33;26.50;;;;;;;;;;5070696;28;20025;-81
2024/03/02 06:10:01;;;;;;;51.83;28.17;;;;;;;;;;5059420;28;20021;-80
2024/03/02 06:12:27;;;;;;;48.55;27.23;;;;;;;;;;5070500;28;20021;-81
2024/03/02 06:14:53;;;;;;;45.28;26.30;;;;;;;;;;5046441;28;20033;-82
2024/03/02 06:17:19;;;;;;;50.22;29.08;;;;;;;;;;5047348;28;20033;-75
2024/03/02 06:19:45;;;;;;;47.38;27.83;;;;;;;;;;5038740;28;20029;-75
2024/03/02 06:22:11;;;;;;;53.45;28.25;;;;;;;;;;5043519;28;20024;-75
2024/03/02 06:24:37;;;;;;;51.78;29.42;;;;;;;;;;5068936;28;20043;-75
2024/03/02 06:27:04;;;;;;;46.10;27.27;;;;;;;;;;5073408;28;20461;-76
2024/03/02 06:29:33;;;;;;;48.47;27.17;;;;;;;;;;5064358;28;20024;-75
2024/03/02 06:32:00;;;;;;;45.05;25.23;;;;;;;;;;5069963;28;20037;-75
2024/03/02 06:34:26;;;;;;;47.10;26.58;;;;;;;;;;5057787;28;20040;-75
2024/03/02 06:36:52;;;;;;;52.40;28.90;;;;;;;;;;5056719;28;20029;-76
2024/03/02 06:39:18;;;;;;;49.78;28.83;;;;;;;;;;5062938;28;20047;-76
2024/03/02 06:41:44;;;;;;;48.85;27.52;;;;;;;;;;5067212;28;20036;-76
2024/03/02 06:44:10;;;;;;;72.53;37.67;;;;;;;;;;5060213;28;20140;-76
2024/03/02 06:46:36;;;;;;;54.20;29.60;;;;;;;;;;5071536;28;20383;-76
2024/03/02 06:49:03;;;;;;;56.88;31.55;;;;;;;;;;5066849;28;20103;-76
2024/03/02 06:51:30;;;;;;;53.53;29.60;;;;;;;;;;5072950;28;20096;-75
2024/03/02 06:53:56;;;;;;;51.83;30.38;;;;;;;;;;5070937;28;20100;-75
2024/03/02 06:56:22;;;;;;;57.97;34.65;;;;;;;;;;5071366;28;20029;-76
2024/03/02 06:58:48;;;;;;;50.45;31.33;;;;;;;;;;5070695;28;20044;-76
2024/03/02 07:01:14;;;;;;;47.20;27.55;;;;;;;;;;5062688;28;20108;-75
2024/03/02 07:03:40;;;;;;;50.38;28.90;;;;;;;;;;5071025;28;20035;-75
2024/03/02 07:06:06;;;;;;;52.65;29.90;;;;;;;;;;5070786;28;20497;-76
2024/03/02 07:08:32;;;;;;;56.55;32.35;;;;;;;;;;5068187;28;20036;-76
2024/03/02 07:10:59;;;;;;;53.35;29.08;;;;;;;;;;5048872;28;20503;-75
2024/03/02 07:13:25;;;;;;;47.47;27.83;;;;;;;;;;5067967;28;20070;-75
2024/03/02 07:18:33;;;;;;;50.65;27.30;;;;;;;;;;5067111;28;20070;-75
2024/03/02 07:21:00;;;;;;;50.33;26.95;;;;;;;;;;5058940;28;20090;-77
2024/03/02 07:23:27;;;;;;;49.95;28.75;;;;;;;;;;5057534;28;20116;-76
2024/03/02 07:25:56;;;;;;;51.22;27.75;;;;;;;;;;5057171;28;20094;-75
2024/03/02 07:28:25;;;;;;;44.97;27.02;;;;;;;;;;5057339;28;20041;-76
2024/03/02 07:31:01;;;;;;;48.97;28.45;;;;;;;;;;5059355;28;20103;-76
2024/03/02 07:33:27;;;;;;;56.22;30.23;;;;;;;;;;5049966;28;20033;-76
2024/03/02 07:35:59;;;;;;;50.97;29.67;;;;;;;;;;5052333;28;20090;-78
2024/03/02 07:38:25;;;;;;;52.50;30.02;;;;;;;;;;5048385;28;20091;-77
2024/03/02 07:40:51;;;;;;;47.88;27.17;;;;;;;;;;5047371;28;20363;-76
2024/03/02 07:43:19;;;;;;;48.28;28.27;;;;;;;;;;5052605;28;20049;-77
2024/03/02 07:45:45;;;;;;;48.25;28.13;;;;;;;;;;5050625;28;20470;-77
2024/03/02 07:48:11;;;;;;;46.53;27.60;;;;;;;;;;5053858;28;20022;-77
2024/03/02 07:50:38;;;;;;;50.88;30.48;;;;;;;;;;5052224;28;20025;-77
2024/03/02 07:53:05;;;;;;;56.47;30.50;;;;;;;;;;5060606;28;20131;-76
2024/03/02 07:55:31;;;;;;;53.25;28.80;;;;;;;;;;5052999;28;20078;-76
2024/03/02 07:57:57;;;;;;;49.33;28.45;;;;;;;;;;5042319;28;20037;-76
2024/03/02 08:00:25;;;;;;;53.17;29.85;;;;;;;;;;5037926;28;20041;-77
2024/03/02 08:02:51;;;;;;;52.05;29.10;;;;;;;;;;5041400;28;20394;-76
2024/03/02 08:05:21;;;;;;;51.38;28.58;;;;;;;;;;5037425;28;20040;-75
2024/03/02 08:07:47;;;;;;;50.22;28.30;;;;;;;;;;5057017;28;20018;-76
2024/03/02 08:10:13;;;;;;;49.75;30.88;;;;;;;;;;5061177;28;20020;-76
2024/03/02 08:12:39;;;;;;;45.95;30.08;;;;;;;;;;5062260;28;20067;-75
2024/03/02 08:15:06;;;;;;;45.38;27.25;;;;;;;;;;5046917;28;20021;-81
2024/03/02 08:17:32;;;;;;;50.47;28.33;;;;;;;;;;5062609;28;20036;-81
2024/03/02 08:19:58;;;;;;;53.70;28.73;;;;;;;;;;5060997;28;20393;-81
2024/03/02 08:22:27;;;;;;;46.33;27.13;;;;;;;;;;5055444;28;20182;-81
2024/03/02 08:24:54;;;;;;;50.28;27.55;;;;;;;;;;5043661;28;20033;-80
2024/03/02 08:27:20;;;;;;;48.20;28.52;;;;;;;;;;5041992;28;20026;-75
2024/03/02 08:29:46;;;;;;;48.30;27.52;;;;;;;;;;5057935;28;20028;-76
2024/03/02 08:32:12;;;;;;;47.25;29.23;;;;;;;;;;5055524;28;20577;-76
2024/03/02 08:34:38;;;;;;;49.58;27.02;;;;;;;;;;5045494;28;20018;-76
2024/03/02 08:37:05;;;;;;;46.33;27.45;;;;;;;;;;5047251;28;20025;-76
2024/03/02 08:39:31;;;;;;;46.50;25.85;;;;;;;;;;5046266;28;20049;-76
2024/03/02 08:41:57;;;;;;;48.20;27.27;;;;;;;;;;5049881;28;20119;-76
2024/03/02 08:44:23;;;;;;;41.75;26.20;;;;;;;;;;5064991;28;20502;-75
2024/03/02 08:46:50;;;;;;;46.85;27.17;;;;;;;;;;5057597;28;20044;-76
2024/03/02 08:49:16;;;;;;;50.60;25.75;;;;;;;;;;5062212;28;20024;-76
2024/03/02 08:51:42;;;;;;;46.80;27.27;;;;;;;;;;5061502;28;20103;-77
2024/03/02 08:54:09;;;;;;;47.80;27.10;;;;;;;;;;5059263;28;20030;-75
2024/03/02 08:56:36;;;;;;;46.78;27.85;;;;;;;;;;5053242;28;20033;-80
2024/03/02 08:59:02;;;;;;;47.95;26.35;;;;;;;;;;5058601;28;20515;-80
2024/03/02 09:01:28;;;;;;;42.63;25.33;;;;;;;;;;5050000;28;20044;-81
2024/03/02 09:03:54;;;;;;;43.17;25.17;;;;;;;;;;5050545;28;20041;-81
2024/03/02 09:06:21;;;;;;;46.75;28.15;;;;;;;;;;5058882;28;20115;-81
2024/03/02 09:08:49;;;;;;;44.08;29.17;;;;;;;;;;5053795;28;20434;-81
2024/03/02 09:11:15;;;;;;;46.95;28.75;;;;;;;;;;5059796;28;20157;-81
2024/03/02 09:13:42;;;;;;;48.85;28.77;;;;;;;;;;5062678;28;20025;-82
2024/03/02 09:16:10;;;;;;;45.08;27.75;;;;;;;;;;5060491;28;20047;-81
2024/03/02 09:18:37;;;;;;;41.03;25.80;;;;;;;;;;5062533;28;20138;-79
2024/03/02 09:21:04;;;;;;;43.28;26.02;;;;;;;;;;5058532;28;20025;-78
2024/03/02 09:23:30;;;;;;;45.83;26.25;;;;;;;;;;5054749;28;20024;-79
2024/03/02 09:25:56;;;;;;;46.55;27.98;;;;;;;;;;5045255;28;20035;-79
2024/03/02 09:28:22;;;;;;;50.75;29.02;;;;;;;;;;5040251;28;20503;-79
2024/03/02 09:30:48;;;;;;;46.63;26.38;;;;;;;;;;5035692;28;20025;-79
2024/03/02 09:33:14;;;;;;;54.75;29.25;;;;;;;;;;5049792;28;20024;-80
2024/03/02 09:35:40;;;;;;;43.80;26.08;;;;;;;;;;5035041;28;20033;-79
2024/03/02 09:38:06;;;;;;;49.90;26.73;;;;;;;;;;5035782;28;20025;-79
2024/03/02 09:40:32;;;;;;;45.15;27.92;;;;;;;;;;5046260;28;20490;-78
2024/03/02 09:42:59;;;;;;;53.88;29.63;;;;;;;;;;5052894;28;20060;-77
2024/03/02 09:45:26;;;;;;;45.85;25.75;;;;;;;;;;5053618;28;20461;-79
2024/03/02 09:47:52;;;;;;;43.55;25.85;;;;;;;;;;5054445;28;20029;-78
2024/03/02 09:50:18;;;;;;;46.40;25.70;;;;;;;;;;5042085;28;20041;-78
2024/03/02 09:52:44;;;;;;;44.10;26.35;;;;;;;;;;5054938;28;20466;-79
2024/03/02 09:55:12;;;;;;;43.55;25.92;;;;;;;;;;5039591;28;20025;-79
2024/03/02 09:57:38;;;;;;;38.45;24.73;;;;;;;;;;5053689;28;20021;-79
2024/03/02 10:00:05;;;;;;;45.67;26.58;;;;;;;;;;5058782;28;20028;-72
2024/03/02 10:02:31;;;;;;;49.40;27.65;;;;;;;;;;5061377;28;20114;-72
2024/03/02 10:04:57;;;;;;;45.60;27.33;;;;;;;;;;5054027;28;20043;-79
2024/03/02 10:07:23;;;;;;;43.10;26.92;;;;;;;;;;5058748;28;20031;-79
2024/03/02 10:09:51;;;;;;;46.55;28.42;;;;;;;;;;5063556;28;20020;-79
2024/03/02 10:12:18;;;;;;;48.17;29.63;;;;;;;;;;5070067;28;20036;-79
2024/03/02 10:14:44;;;;;;;42.33;25.25;;;;;;;;;;5054535;28;20036;-73
2024/03/02 10:17:12;;;;;;;48.22;26.48;;;;;;;;;;5057778;28;20055;-73
2024/03/02 10:19:38;;;;;;;40.50;25.27;;;;;;;;;;5062794;28;20656;-74
2024/03/02 10:22:06;;;;;;;40.08;24.70;;;;;;;;;;5065681;28;20017;-74
2024/03/02 10:24:38;;;;;;;41.03;24.30;;;;;;;;;;5064623;28;20040;-73
2024/03/02 10:27:11;;;;;;;42.55;23.77;;;;;;;;;;5044403;28;20032;-74
2024/03/02 10:29:38;;;;;;;;;;;;;;;;;;5069748;28;20083;-74
2024/03/02 10:32:06;;;;;;;39.90;24.52;;;;;;;;;;5053874;28;19908;-73
2024/03/02 10:34:32;;;;;;;46.10;25.25;;;;;;;;;;5051200;28;20039;-73
2024/03/02 10:36:59;;;;;;;43.90;24.48;;;;;;;;;;5050846;28;20084;-72
2024/03/02 10:39:25;;;;;;;37.92;22.30;;;;;;;;;;5049969;28;20448;-72
2024/03/02 10:41:53;;;;;;;39.53;22.10;;;;;;;;;;5059268;28;20017;-73
2024/03/02 10:44:19;;;;;;;36.72;22.42;;;;;;;;;;5062479;28;20568;-72
2024/03/02 10:46:46;;;;;;;37.53;22.25;;;;;;;;;;5057863;28;20078;-73
2024/03/02 10:49:12;;;;;;;40.65;23.92;;;;;;;;;;5048651;28;20108;-73
2024/03/02 10:51:38;;;;;;;41.60;23.17;;;;;;;;;;5057575;28;20033;-73
2024/03/02 10:54:06;;;;;;;42.30;23.95;;;;;;;;;;5063603;28;20029;-72
2024/03/02 10:56:33;;;;;;;40.85;23.77;;;;;;;;;;5065513;28;20970;-73
2024/03/02 10:59:03;;;;;;;37.42;22.75;;;;;;;;;;5058981;28;20406;-74
2024/03/02 11:01:33;;;;;;;37.53;23.20;;;;;;;;;;5048265;28;20029;-73
2024/03/02 11:04:00;;;;;;;40.45;23.05;;;;;;;;;;5062435;28;20505;-73
2024/03/02 11:06:27;;;;;;;39.63;23.42;;;;;;;;;;5059554;28;20044;-73
2024/03/02 11:08:58;;;;;;;35.33;21.67;;;;;;;;;;5060319;28;20044;-72
2024/03/02 11:11:29;;;;;;;37.83;22.80;;;;;;;;;;5060353;28;20017;-73
2024/03/02 11:13:59;;;;;;;37.80;22.13;;;;;;;;;;5059357;28;20044;-73
2024/03/02 11:16:35;;;;;;;43.28;23.55;;;;;;;;;;5061563;28;20103;-72
2024/03/02 11:19:06;;;;;;;47.35;23.63;;;;;;;;;;5058615;28;20382;-73
2024/03/02 11:21:33;;;;;;;38.97;22.45;;;;;;;;;;5063531;28;20032;-72
2024/03/02 11:23:59;;;;;;;39.58;23.83;;;;;;;;;;5058594;28;20123;-73
2024/03/02 11:26:25;;;;;;;37.33;23.27;;;;;;;;;;5057190;28;20067;-73
2024/03/02 11:28:51;;;;;;;34.30;21.92;;;;;;;;;;5063088;28;20029;-73
2024/03/02 11:31:17;;;;;;;39.78;24.27;;;;;;;;;;5065417;28;20032;-72
2024/03/02 11:33:44;;;;;;;41.95;24.63;;;;;;;;;;5061218;28;20029;-73
2024/03/02 11:36:10;;;;;;;39.63;23.77;;;;;;;;;;5066683;28;20031;-73
2024/03/02 11:38:36;;;;;;;34.53;21.38;;;;;;;;;;5054988;28;20363;-73
2024/03/02 11:41:03;;;;;;;41.58;23.83;;;;;;;;;;5067125;28;20095;-73
2024/03/02 11:43:30;;;;;;;37.45;23.55;;;;;;;;;;5055310;28;20053;-73
2024/03/02 11:46:00;;;;;;;39.30;24.48;;;;;;;;;;5067733;28;20477;-73
2024/03/02 11:48:26;;;;;;;44.78;27.35;;;;;;;;;;5056990;28;20033;-72
2024/03/02 11:50:53;;;;;;;40.53;23.80;;;;;;;;;;5066181;28;20437;-73
2024/03/02 11:53:20;;;;;;;38.08;23.88;;;;;;;;;;5053223;28;20035;-73
2024/03/02 11:55:46;;;;;;;39.75;23.70;;;;;;;;;;5058893;28;20576;-72
2024/03/02 11:58:13;;;;;;;42.05;23.85;;;;;;;;;;5061907;28;20044;-73
2024/03/02 12:00:39;;;;;;;37.38;23.83;;;;;;;;;;5064102;28;20108;-74
2024/03/02 12:03:09;;;;;;;38.28;23.45;;;;;;;;;;5056726;28;20021;-73
2024/03/02 12:05:36;;;;;;;36.35;21.63;;;;;;;;;;5051914;28;20024;-72
2024/03/02 12:08:09;;;;;;;42.15;23.55;;;;;;;;;;5053990;28;20025;-73
2024/03/02 12:10:36;;;;;;;43.03;24.40;;;;;;;;;;5057932;28;20033;-73
2024/03/02 12:13:12;;;;;;;47.17;25.70;;;;;;;;;;5054432;28;20033;-73
2024/03/02 12:15:39;;;;;;;37.20;22.73;;;;;;;;;;5044795;28;20026;-73
2024/03/02 12:18:05;;;;;;;36.15;22.42;;;;;;;;;;5049824;28;20025;-73
2024/03/02 12:20:32;;;;;;;34.20;21.80;;;;;;;;;;5044078;28;20026;-73
2024/03/02 12:22:59;;;;;;;38.80;23.13;;;;;;;;;;5039783;28;20431;-73
2024/03/02 12:25:25;;;;;;;36.97;22.85;;;;;;;;;;5052260;28;20037;-73
2024/03/02 12:27:54;;;;;;;40.63;24.45;;;;;;;;;;5056734;28;20099;-73
2024/03/02 12:30:20;;;;;;;37.20;23.15;;;;;;;;;;5055866;28;20021;-74
2024/03/02 12:32:47;;;;;;;42.17;25.98;;;;;;;;;;5052375;28;20738;-72
2024/03/02 12:35:17;;;;;;;37.20;23.75;;;;;;;;;;5056936;28;20032;-73
2024/03/02 12:37:46;;;;;;;41.25;24.42;;;;;;;;;;5043725;28;20017;-73
2024/03/02 12:40:13;;;;;;;40.25;23.75;;;;;;;;;;5054545;28;20025;-74
2024/03/02 12:42:42;;;;;;;41.05;23.33;;;;;;;;;;5052954;28;20049;-72
2024/03/02 12:45:08;;;;;;;36.20;23.55;;;;;;;;;;5037315;28;20048;-75
2024/03/02 12:47:35;;;;;;;36.05;23.02;;;;;;;;;;5043942;28;20167;-74
2024/03/02 12:50:01;;;;;;;40.35;25.17;;;;;;;;;;5045460;28;20029;-73
2024/03/02 12:52:27;;;;;;;39.75;23.77;;;;;;;;;;5048805;28;20372;-74
2024/03/02 12:54:58;;;;;;;41.88;26.10;;;;;;;;;;5052049;28;20025;-73
2024/03/02 12:57:27;;;;;;;43.05;26.25;;;;;;;;;;5050701;28;20053;-74
2024/03/02 12:59:53;;;;;;;35.08;23.67;;;;;;;;;;5052703;28;20021;-75
2024/03/02 13:02:19;;;;;;;45.42;24.58;;;;;;;;;;5052043;28;20029;-73
2024/03/02 13:04:45;;;;;;;37.05;24.58;;;;;;;;;;5051590;28;20045;-74
2024/03/02 13:07:14;;;;;;;38.60;24.92;;;;;;;;;;5051014;28;20455;-74
2024/03/02 13:09:40;;;;;;;41.25;24.55;;;;;;;;;;5047356;28;20025;-74
2024/03/02 13:12:06;;;;;;;34.67;23.58;;;;;;;;;;5052147;28;20596;-74
2024/03/02 13:14:33;;;;;;;36.08;23.52;;;;;;;;;;5048601;28;20516;-74
2024/03/02 13:17:00;;;;;;;36.95;23.25;;;;;;;;;;5049425;28;20021;-74
2024/03/02 13:19:28;;;;;;;41.25;25.10;;;;;;;;;;5052585;28;20025;-74
2024/03/02 13:21:55;;;;;;;42.65;26.65;;;;;;;;;;5043420;28;20025;-74
2024/03/02 13:24:21;;;;;;;40.03;24.88;;;;;;;;;;5052535;28;20033;-74
2024/03/02 13:26:47;;;;;;;41.33;25.63;;;;;;;;;;5055153;28;20025;-74
2024/03/02 13:29:13;;;;;;;39.70;24.27;;;;;;;;;;5056558;28;20024;-73
2024/03/02 13:31:39;;;;;;;42.17;25.67;;;;;;;;;;5053570;28;20028;-73
2024/03/02 13:34:06;;;;;;;37.83;25.88;;;;;;;;;;5054313;28;20024;-74
2024/03/02 13:36:32;;;;;;;40.17;25.77;;;;;;;;;;5056102;28;20033;-73
2024/03/02 13:38:58;;;;;;;40.55;25.00;;;;;;;;;;5058385;28;20020;-74
2024/03/02 13:41:24;;;;;;;36.63;24.58;;;;;;;;;;5057445;28;20433;-74
2024/03/02 13:43:50;;;;;;;45.05;29.45;;;;;;;;;;5053629;28;20502;-76
2024/03/02 13:46:16;;;;;;;37.58;25.17;;;;;;;;;;5051886;28;20028;-75
2024/03/02 13:48:42;;;;;;;37.28;23.67;;;;;;;;;;5047706;28;20723;-75
2024/03/02 13:51:08;;;;;;;48.70;26.65;;;;;;;;;;5053275;28;20029;-74
2024/03/02 13:53:35;;;;;;;42.70;26.42;;;;;;;;;;5052847;28;20033;-75
2024/03/02 13:56:01;;;;;;;45.42;25.92;;;;;;;;;;5041140;28;20088;-75
2024/03/02 13:58:27;;;;;;;46.70;27.40;;;;;;;;;;5044175;28;20067;-74
2024/03/02 14:00:53;;;;;;;48.33;29.50;;;;;;;;;;5054012;28;20029;-75
2024/03/02 14:03:19;;;;;;;38.85;24.52;;;;;;;;;;5054897;28;20025;-73
2024/03/02 14:05:46;;;;;;;48.03;27.95;;;;;;;;;;5055339;28;20359;-73
2024/03/02 14:08:12;;;;;;;40.08;25.38;;;;;;;;;;5053687;28;20025;-74
2024/03/02 14:10:38;;;;;;;43.10;26.48;;;;;;;;;;5050308;28;20043;-74
2024/03/02 14:13:05;;;;;;;43.10;26.48;;;;;;;;;;5050854;28;20471;-75
2024/03/02 14:15:31;;;;;;;47.60;26.52;;;;;;;;;;5053344;28;20036;-74
2024/03/02 14:17:57;;;;;;;41.03;25.90;;;;;;;;;;5052426;28;20836;-74
2024/03/02 14:20:23;;;;;;;43.33;26.60;;;;;;;;;;5051975;28;20410;-74